Time;durP1;ratioP1;P1;durP2;ratioP2;P2;SDS_P1;SDS_P2;PMS_P1;PMS_P2;Temp;Humidity;BMP_temperature;BMP_pressure;BME280_temperature;BME280_humidity;BME280_pressure;Samples;Min_cycle;Max_cycle;Signal;HPM_P1;HPM_P2
2021/05/07 00:01:01;;;;;;;5.15;2.28;;;;;;;13.82;49.06;93721.53;5110708;27;20059;-71
2021/05/07 00:03:27;;;;;;;8.00;2.55;;;;;;;13.84;48.55;93721.97;5110587;28;20479;-71
2021/05/07 00:05:56;;;;;;;9.48;2.42;;;;;;;13.84;48.70;93717.41;5128013;27;20015;-72
2021/05/07 00:08:27;;;;;;;10.38;2.58;;;;;;;13.77;48.97;93717.16;5114127;27;20016;-71
2021/05/07 00:10:53;;;;;;;6.82;2.67;;;;;;;13.68;48.91;93713.03;5110581;28;20020;-72
2021/05/07 00:13:19;;;;;;;7.40;2.47;;;;;;;13.65;49.49;93714.50;5118795;27;20509;-71
2021/05/07 00:15:44;;;;;;;7.88;2.50;;;;;;;13.60;50.24;93718.19;5122195;27;20032;-71
2021/05/07 00:18:10;;;;;;;12.38;2.40;;;;;;;13.52;49.87;93710.28;5128547;27;20027;-72
2021/05/07 00:20:35;;;;;;;5.88;2.22;;;;;;;13.54;49.75;93710.72;5129763;27;20034;-71
2021/05/07 00:23:01;;;;;;;8.80;2.67;;;;;;;13.53;50.26;93717.19;5129649;28;20033;-72
2021/05/07 00:25:27;;;;;;;7.43;2.53;;;;;;;13.53;50.15;93711.81;5130961;27;20038;-71
2021/05/07 00:28:09;;;;;;;18.83;5.15;;;;;;;13.51;50.43;93709.47;5131045;27;20023;-71
2021/05/07 00:30:36;;;;;;;4.70;2.60;;;;;;;13.43;51.68;93700.47;5129513;27;20029;-71
2021/05/07 00:33:02;;;;;;;6.63;2.63;;;;;;;13.40;51.72;93705.69;5130744;27;20035;-71
2021/05/07 00:35:27;;;;;;;4.85;2.63;;;;;;;13.35;52.06;93709.38;5129576;27;20038;-71
2021/05/07 00:37:53;;;;;;;4.30;2.67;;;;;;;13.27;52.57;93704.06;5130861;27;20032;-71
2021/05/07 00:40:20;;;;;;;11.07;2.53;;;;;;;13.22;53.03;93707.75;5130745;27;20502;-71
2021/05/07 00:42:45;;;;;;;8.23;2.63;;;;;;;13.21;52.87;93700.84;5123087;27;20564;-71
2021/05/07 00:45:13;;;;;;;9.68;2.42;;;;;;;13.16;52.41;93688.47;5128725;27;20027;-71
2021/05/07 00:47:53;;;;;;;5.93;2.97;;;;;;;13.16;52.92;93696.47;5129713;27;20974;-71
2021/05/07 00:50:20;;;;;;;5.25;2.63;;;;;;;13.01;53.25;93697.91;5130776;27;20045;-71
2021/05/07 00:52:45;;;;;;;10.20;2.58;;;;;;;12.97;53.44;93702.38;5129570;27;20095;-71
2021/05/07 00:55:11;;;;;;;6.25;2.55;;;;;;;12.97;53.62;93697.03;5130509;27;20031;-71
2021/05/07 00:57:38;;;;;;;6.63;2.65;;;;;;;12.93;53.94;93711.41;5129260;28;20027;-72
2021/05/07 01:00:06;;;;;;;12.13;2.92;;;;;;;12.85;53.60;93700.44;5129221;28;20027;-72
2021/05/07 01:02:31;;;;;;;7.88;2.70;;;;;;;12.81;53.69;93688.06;5129394;27;20029;-72
2021/05/07 01:04:57;;;;;;;4.93;2.90;;;;;;;12.80;54.25;93697.19;5130593;27;20114;-72
2021/05/07 01:07:22;;;;;;;11.50;3.45;;;;;;;12.82;54.21;93692.28;5129210;27;20060;-72
2021/05/07 01:09:51;;;;;;;7.43;2.95;;;;;;;12.79;54.20;93692.97;5130696;27;20435;-72
2021/05/07 01:12:17;;;;;;;4.18;2.70;;;;;;;12.76;54.47;93699.75;5129087;28;20534;-72
2021/05/07 01:14:56;;;;;;;10.77;2.90;;;;;;;12.72;55.19;93700.72;5133216;27;20527;-72
2021/05/07 01:17:21;;;;;;;6.95;2.00;;;;;;;12.67;53.44;93703.63;5134232;27;20398;-73
2021/05/07 01:19:47;;;;;;;8.18;2.78;;;;;;;12.58;53.72;93696.47;5133113;27;20023;-72
2021/05/07 01:22:12;;;;;;;8.57;2.40;;;;;;;12.58;54.17;93707.16;5134223;27;20038;-73
2021/05/07 01:24:39;;;;;;;6.88;2.33;;;;;;;12.61;53.86;93706.50;5134191;27;20102;-72
2021/05/07 01:27:05;;;;;;;6.40;2.20;;;;;;;12.60;53.68;93701.50;5132814;27;20023;-72
2021/05/07 01:29:30;;;;;;;5.50;2.75;;;;;;;12.59;53.65;93703.38;5133758;27;20038;-72
2021/05/07 01:31:57;;;;;;;5.90;2.00;;;;;;;12.61;54.06;93701.16;5132834;27;20420;-72
2021/05/07 01:34:22;;;;;;;7.25;2.78;;;;;;;12.56;54.07;93704.03;5133916;27;20023;-72
2021/05/07 01:36:48;;;;;;;9.05;2.50;;;;;;;12.60;53.37;93704.16;5128031;27;20031;-72
2021/05/07 01:39:13;;;;;;;4.38;1.90;;;;;;;12.60;54.53;93699.59;5130743;27;20030;-72
2021/05/07 01:41:38;;;;;;;6.25;2.60;;;;;;;12.61;55.16;93708.41;5133055;27;20023;-71
2021/05/07 01:44:04;;;;;;;6.65;2.38;;;;;;;12.58;54.88;93691.13;5130556;27;20167;-71
2021/05/07 01:46:30;;;;;;;9.93;2.50;;;;;;;12.52;55.07;93699.69;5124167;27;20507;-71
2021/05/07 01:48:55;;;;;;;7.18;2.63;;;;;;;12.49;54.91;93692.31;5131460;27;20043;-71
2021/05/07 01:51:21;;;;;;;5.00;2.70;;;;;;;12.47;54.80;93689.97;5129394;27;20023;-71
2021/05/07 01:53:46;;;;;;;6.47;2.80;;;;;;;12.49;54.95;93682.41;5128993;27;20058;-71
2021/05/07 01:56:11;;;;;;;8.13;2.47;;;;;;;12.52;54.79;93684.41;5129404;27;20027;-71
2021/05/07 01:58:37;;;;;;;6.28;1.80;;;;;;;12.56;54.61;93681.88;5122070;27;20027;-71
2021/05/07 02:01:03;;;;;;;6.22;2.20;;;;;;;12.53;54.86;93682.53;5129309;27;20023;-72
2021/05/07 02:03:28;;;;;;;5.25;2.35;;;;;;;12.49;54.73;93677.03;5121946;27;20030;-71
2021/05/07 02:05:54;;;;;;;8.52;2.47;;;;;;;12.48;54.78;93678.16;5123524;27;20024;-71
2021/05/07 02:08:19;;;;;;;5.35;2.45;;;;;;;12.49;55.54;93689.63;5130034;27;20402;-71
2021/05/07 02:10:44;;;;;;;4.45;2.10;;;;;;;12.47;55.51;93691.84;5132416;27;20095;-71
2021/05/07 02:13:12;;;;;;;6.10;1.95;;;;;;;12.41;55.22;93685.94;5132702;27;20102;-71
2021/05/07 02:15:38;;;;;;;6.85;2.03;;;;;;;12.43;55.69;93678.38;5129088;27;20023;-71
2021/05/07 02:18:06;;;;;;;5.32;2.28;;;;;;;12.39;55.33;93677.44;5130475;27;20061;-71
2021/05/07 02:20:32;;;;;;;9.80;3.03;;;;;;;12.36;54.63;93676.22;5130758;27;20099;-71
2021/05/07 02:22:58;;;;;;;6.85;2.25;;;;;;;12.33;55.24;93676.88;5132295;27;20057;-71
2021/05/07 02:25:26;;;;;;;6.97;2.13;;;;;;;12.29;55.61;93677.88;5129941;27;20055;-72
2021/05/07 02:27:55;;;;;;;6.25;2.35;;;;;;;12.34;55.86;93683.03;5121471;27;20023;-72
2021/05/07 02:30:23;;;;;;;5.25;2.22;;;;;;;12.31;55.89;93670.28;5128906;27;20024;-71
2021/05/07 02:32:48;;;;;;;11.57;2.60;;;;;;;12.23;55.76;93667.38;5120543;27;20487;-71
2021/05/07 02:35:14;;;;;;;7.13;2.08;;;;;;;12.26;55.93;93673.19;5126488;27;20128;-71
2021/05/07 02:37:40;;;;;;;5.70;2.03;;;;;;;12.27;55.97;93680.06;5131697;27;20035;-71
2021/05/07 02:40:08;;;;;;;6.55;2.22;;;;;;;12.24;55.88;93671.59;5123891;27;20023;-71
2021/05/07 02:42:34;;;;;;;4.45;2.05;;;;;;;12.30;55.54;93672.19;5118224;27;20034;-71
2021/05/07 02:45:03;;;;;;;8.18;2.08;;;;;;;12.34;55.85;93680.34;5127863;27;20491;-71
2021/05/07 02:47:31;;;;;;;4.82;2.33;;;;;;;12.30;55.85;93684.78;5131750;27;20031;-71
2021/05/07 02:49:57;;;;;;;7.20;1.95;;;;;;;12.22;55.63;93676.50;5131670;27;20043;-71
2021/05/07 02:52:22;;;;;;;4.85;2.25;;;;;;;12.19;56.29;93685.19;5123669;27;20027;-71
2021/05/07 02:54:48;;;;;;;5.60;2.45;;;;;;;12.20;56.50;93680.63;5125091;27;20031;-71
2021/05/07 02:57:13;;;;;;;6.40;2.67;;;;;;;12.19;56.08;93685.19;5129005;27;20034;-71
2021/05/07 02:59:39;;;;;;;5.72;2.00;;;;;;;12.18;56.63;93686.28;5129805;27;20039;-72
2021/05/07 03:02:04;;;;;;;6.07;2.67;;;;;;;12.16;56.59;93685.81;5131605;27;20066;-71
2021/05/07 03:04:30;;;;;;;4.35;2.30;;;;;;;12.10;56.51;93687.13;5128412;27;20447;-71
2021/05/07 03:06:55;;;;;;;7.70;2.53;;;;;;;12.12;56.69;93686.81;5123186;27;20447;-71
2021/05/07 03:09:21;;;;;;;11.15;2.22;;;;;;;12.10;56.01;93687.13;5129572;27;20148;-71
2021/05/07 03:11:46;;;;;;;10.70;2.45;;;;;;;12.08;56.46;93692.00;5131214;27;20023;-72
2021/05/07 03:14:12;;;;;;;3.83;2.20;;;;;;;12.10;56.60;93697.81;5131376;27;20034;-71
2021/05/07 03:16:37;;;;;;;7.47;3.70;;;;;;;12.10;55.32;93692.47;5120412;27;20039;-72
2021/05/07 03:19:03;;;;;;;3.05;2.08;;;;;;;12.09;55.71;93690.91;5130619;27;20031;-71
2021/05/07 03:21:29;;;;;;;6.90;2.50;;;;;;;12.13;55.52;93693.69;5131103;27;20023;-71
2021/05/07 03:23:54;;;;;;;6.95;2.58;;;;;;;12.18;55.48;93696.97;5120746;27;20585;-71
2021/05/07 03:26:20;;;;;;;4.88;2.28;;;;;;;12.14;55.34;93693.38;5120411;27;20213;-71
2021/05/07 03:28:45;;;;;;;4.68;2.17;;;;;;;12.11;56.01;93699.38;5121506;27;20059;-72
2021/05/07 03:31:11;;;;;;;6.00;2.13;;;;;;;12.17;55.97;93698.09;5119667;27;20054;-72
2021/05/07 03:33:37;;;;;;;4.72;2.30;;;;;;;12.22;56.45;93711.22;5121029;27;20085;-73
2021/05/07 03:36:04;;;;;;;6.30;2.03;;;;;;;12.23;56.40;93712.00;5117177;27;20031;-72
2021/05/07 03:38:29;;;;;;;4.20;2.25;;;;;;;12.24;56.35;93714.38;5113809;27;20023;-73
2021/05/07 03:40:55;;;;;;;3.15;2.00;;;;;;;12.27;56.70;93715.59;5131206;27;20088;-72
2021/05/07 03:43:21;;;;;;;8.07;2.22;;;;;;;12.31;56.37;93718.41;5127202;27;20031;-72
2021/05/07 03:45:46;;;;;;;6.78;1.98;;;;;;;12.34;56.65;93725.78;5128547;27;20106;-73
2021/05/07 03:48:22;;;;;;;3.30;1.95;;;;;;;12.30;56.66;93717.63;5132273;27;20399;-73
2021/05/07 03:50:48;;;;;;;4.30;2.45;;;;;;;12.35;56.38;93713.97;5125343;27;20042;-72
2021/05/07 03:53:16;;;;;;;11.68;2.35;;;;;;;12.38;57.07;93719.44;5119332;27;20549;-72
2021/05/07 03:55:42;;;;;;;8.80;2.15;;;;;;;12.37;55.94;93722.44;5122007;27;20023;-72
2021/05/07 03:58:09;;;;;;;4.20;2.05;;;;;;;12.44;55.41;93728.06;5131776;27;20130;-73
2021/05/07 04:00:37;;;;;;;9.27;2.30;;;;;;;12.53;55.34;93723.41;5133482;27;20031;-72
2021/05/07 04:03:04;;;;;;;5.45;2.35;;;;;;;12.59;54.24;93722.09;5114571;28;20031;-73
2021/05/07 04:05:29;;;;;;;5.15;2.30;;;;;;;12.62;54.24;93718.78;5119041;27;20067;-72
2021/05/07 04:08:10;;;;;;;4.55;2.15;;;;;;;12.75;54.69;93729.50;5130612;27;20022;-73
2021/05/07 04:10:44;;;;;;;7.07;2.40;;;;;;;12.81;54.60;93725.50;5124253;27;20031;-73
2021/05/07 04:15:56;;;;;;;6.95;3.00;;;;;;;12.92;56.39;93740.03;5125620;27;20038;-72
2021/05/07 04:18:21;;;;;;;7.90;2.63;;;;;;;13.02;55.01;93736.91;5128006;27;20020;-73
2021/05/07 04:20:47;;;;;;;6.55;2.95;;;;;;;13.10;53.98;93737.19;5130122;27;20075;-72
2021/05/07 04:23:16;;;;;;;5.80;3.20;;;;;;;13.13;54.98;93749.91;5129341;27;20015;-73
2021/05/07 04:25:41;;;;;;;15.88;3.38;;;;;;;13.19;54.69;93740.56;5117454;28;20039;-73
2021/05/07 04:28:07;;;;;;;12.23;4.40;;;;;;;13.20;54.71;93752.81;5112785;28;20023;-72
2021/05/07 04:30:35;;;;;;;17.85;4.53;;;;;;;13.11;56.01;93744.88;5129191;28;20139;-73
2021/05/07 04:33:01;;;;;;;11.63;4.32;;;;;;;13.04;56.73;93745.41;5117123;27;20429;-73
2021/05/07 04:35:26;;;;;;;16.45;3.95;;;;;;;13.03;57.25;93754.56;5133238;27;20023;-72
2021/05/07 04:37:52;;;;;;;10.10;4.53;;;;;;;12.97;57.46;93755.88;5133358;27;20023;-73
2021/05/07 04:40:19;;;;;;;11.32;5.03;;;;;;;13.02;57.47;93752.19;5120757;27;20027;-73
2021/05/07 04:42:45;;;;;;;11.13;4.72;;;;;;;13.05;57.71;93762.25;5115561;27;20031;-73
2021/05/07 04:45:11;;;;;;;11.32;5.45;;;;;;;13.03;57.99;93759.91;5129378;28;20406;-74
2021/05/07 04:47:37;;;;;;;14.65;4.38;;;;;;;13.14;57.75;93765.59;5121298;27;20467;-72
2021/05/07 04:50:11;;;;;;;14.38;4.82;;;;;;;13.20;57.60;93764.28;5129107;27;20039;-73
2021/05/07 04:52:37;;;;;;;9.48;4.63;;;;;;;13.13;57.66;93757.94;5132480;27;20055;-72
2021/05/07 04:55:03;;;;;;;11.48;4.55;;;;;;;13.24;57.27;93764.41;5133467;27;20031;-72
2021/05/07 04:57:28;;;;;;;9.88;4.18;;;;;;;13.34;57.17;93764.00;5127910;27;20031;-72
2021/05/07 04:59:55;;;;;;;8.50;4.90;;;;;;;13.44;56.43;93771.63;5136640;27;20033;-72
2021/05/07 05:02:21;;;;;;;17.05;4.63;;;;;;;13.46;56.28;93760.56;5133678;27;20030;-72
2021/05/07 05:04:47;;;;;;;12.25;4.28;;;;;;;13.51;56.38;93760.34;5130288;27;20111;-72
2021/05/07 05:07:12;;;;;;;15.93;4.93;;;;;;;13.66;56.38;93761.59;5133317;27;20055;-72
2021/05/07 05:09:38;;;;;;;20.90;4.97;;;;;;;13.75;55.88;93759.59;5134367;27;20390;-72
2021/05/07 05:12:05;;;;;;;16.30;4.63;;;;;;;13.89;55.97;93758.47;5134501;27;20470;-72
2021/05/07 05:14:30;;;;;;;16.08;5.05;;;;;;;14.04;55.77;93757.78;5132937;27;20054;-72
2021/05/07 05:16:56;;;;;;;16.73;4.60;;;;;;;14.14;54.57;93767.25;5133405;27;20073;-72
2021/05/07 05:19:21;;;;;;;17.10;4.72;;;;;;;14.24;54.17;93764.13;5132954;27;20023;-71
2021/05/07 05:21:46;;;;;;;12.68;5.00;;;;;;;14.35;54.46;93765.22;5133585;27;20470;-71
2021/05/07 05:24:12;;;;;;;12.02;4.60;;;;;;;14.49;54.17;93772.91;5124569;27;20485;-71
2021/05/07 05:26:37;;;;;;;18.48;4.75;;;;;;;14.58;53.94;93770.88;5129772;27;20023;-71
2021/05/07 05:29:03;;;;;;;22.20;5.63;;;;;;;14.68;53.83;93774.22;5115737;27;20387;-71
2021/05/07 05:31:28;;;;;;;18.58;5.43;;;;;;;14.82;53.37;93777.31;5119414;27;20073;-72
2021/05/07 05:33:53;;;;;;;13.82;5.25;;;;;;;14.94;52.77;93769.19;5133864;27;20062;-72
2021/05/07 05:36:19;;;;;;;16.38;4.85;;;;;;;15.09;52.24;93767.66;5127998;27;20136;-72
2021/05/07 05:38:44;;;;;;;16.00;4.93;;;;;;;15.22;51.41;93779.13;5135083;27;20027;-72
2021/05/07 05:41:10;;;;;;;15.27;4.78;;;;;;;15.34;50.86;93775.59;5127136;27;20023;-72
2021/05/07 05:43:35;;;;;;;7.00;3.95;;;;;;;15.47;51.05;93773.59;5114519;28;20046;-73
2021/05/07 05:46:01;;;;;;;11.57;3.67;;;;;;;15.58;50.11;93769.28;5126276;27;20105;-72
2021/05/07 05:48:26;;;;;;;13.02;3.13;;;;;;;15.72;48.46;93766.97;5132621;27;20045;-72
2021/05/07 05:50:52;;;;;;;5.90;3.38;;;;;;;15.74;47.03;93762.03;5133029;27;20023;-71
2021/05/07 05:53:18;;;;;;;9.23;3.78;;;;;;;15.81;47.71;93766.78;5132788;27;20413;-71
2021/05/07 05:55:44;;;;;;;7.68;3.70;;;;;;;15.82;46.97;93774.50;5123395;27;20035;-72
2021/05/07 05:58:11;;;;;;;10.63;2.67;;;;;;;15.84;46.13;93764.19;5134782;27;20031;-72
2021/05/07 06:00:37;;;;;;;6.38;3.10;;;;;;;15.82;46.36;93776.44;5133144;27;20044;-72
2021/05/07 06:03:03;;;;;;;6.80;3.20;;;;;;;15.78;46.41;93768.28;5128786;27;20505;-72
2021/05/07 06:05:28;;;;;;;8.13;3.97;;;;;;;15.82;46.66;93777.19;5126365;27;20103;-72
2021/05/07 06:07:54;;;;;;;11.80;3.85;;;;;;;15.83;46.82;93777.97;5113822;28;20110;-72
2021/05/07 06:10:20;;;;;;;10.57;3.35;;;;;;;15.89;47.13;93781.94;5132179;27;20126;-72
2021/05/07 06:12:47;;;;;;;10.43;3.45;;;;;;;15.98;47.07;93787.94;5115345;27;20031;-73
2021/05/07 06:15:13;;;;;;;12.30;3.60;;;;;;;15.98;47.08;93781.78;5126692;27;20038;-72
2021/05/07 06:17:39;;;;;;;15.30;3.80;;;;;;;16.01;47.51;93784.53;5112443;28;20023;-73
2021/05/07 06:20:07;;;;;;;11.80;3.83;;;;;;;16.00;46.62;93771.47;5119635;27;20057;-72
2021/05/07 06:22:33;;;;;;;11.70;3.03;;;;;;;16.04;46.76;93770.41;5132999;27;20025;-72
2021/05/07 06:25:00;;;;;;;7.50;3.05;;;;;;;16.15;46.05;93778.72;5132739;27;20093;-72
2021/05/07 06:27:25;;;;;;;11.30;3.25;;;;;;;16.25;46.73;93772.78;5122909;27;20026;-72
2021/05/07 06:29:51;;;;;;;9.27;3.22;;;;;;;16.35;46.10;93778.78;5132636;27;20479;-72
2021/05/07 06:32:17;;;;;;;11.75;3.95;;;;;;;16.38;45.94;93770.75;5131337;27;20023;-72
2021/05/07 06:34:43;;;;;;;6.38;2.83;;;;;;;16.37;45.13;93763.84;5125552;27;20573;-72
2021/05/07 06:37:08;;;;;;;5.70;2.47;;;;;;;16.22;45.36;93757.38;5133974;27;20058;-72
2021/05/07 06:39:33;;;;;;;6.85;2.95;;;;;;;16.30;45.46;93763.66;5133808;27;20023;-72
2021/05/07 06:42:03;;;;;;;9.63;2.78;;;;;;;16.43;45.41;93758.97;5130920;27;20039;-72
2021/05/07 06:44:31;;;;;;;6.97;2.50;;;;;;;16.50;44.04;93753.72;5112199;28;20172;-73
2021/05/07 06:46:57;;;;;;;9.93;2.60;;;;;;;16.61;42.44;93754.75;5122688;27;20474;-72
2021/05/07 06:49:23;;;;;;;7.53;2.00;;;;;;;16.71;42.10;93760.69;5133760;27;20051;-73
2021/05/07 06:51:50;;;;;;;8.63;2.08;;;;;;;16.80;42.19;93756.66;5123973;27;20053;-72
2021/05/07 06:54:16;;;;;;;5.25;2.10;;;;;;;16.89;42.44;93752.97;5117937;27;20537;-72
2021/05/07 06:56:41;;;;;;;9.73;2.30;;;;;;;16.99;42.38;93747.78;5130933;27;20125;-72
2021/05/07 06:59:07;;;;;;;14.38;3.40;;;;;;;17.10;43.31;93745.31;5111596;28;20099;-72
2021/05/07 07:01:33;;;;;;;16.88;3.85;;;;;;;17.23;43.57;93743.25;5121454;27;20023;-72
2021/05/07 07:03:59;;;;;;;15.30;3.28;;;;;;;17.40;43.51;93744.69;5114122;27;20046;-72
2021/05/07 07:06:24;;;;;;;11.88;2.90;;;;;;;17.56;43.29;93741.88;5125422;27;20019;-73
2021/05/07 07:08:51;;;;;;;10.65;3.30;;;;;;;17.72;42.61;93742.53;5114551;27;20081;-72
2021/05/07 07:11:17;;;;;;;10.52;2.90;;;;;;;17.89;42.34;93732.41;5131625;27;20043;-73
2021/05/07 07:13:43;;;;;;;11.52;2.55;;;;;;;18.03;41.57;93733.41;5133376;27;20046;-72
2021/05/07 07:16:09;;;;;;;9.65;3.50;;;;;;;18.07;40.90;93735.38;5117099;27;20020;-73
2021/05/07 07:18:34;;;;;;;12.55;2.80;;;;;;;18.20;40.70;93745.59;5112810;28;20566;-72
2021/05/07 07:21:00;;;;;;;19.77;3.97;;;;;;;18.26;40.58;93740.69;5111090;28;20039;-72
2021/05/07 07:23:25;;;;;;;12.65;3.28;;;;;;;18.30;40.48;93733.41;5116172;27;20067;-72
2021/05/07 07:25:51;;;;;;;14.48;3.55;;;;;;;18.45;40.69;93734.38;5114137;27;20074;-72
2021/05/07 07:28:18;;;;;;;10.00;2.78;;;;;;;18.60;40.68;93727.22;5116075;27;20015;-73
2021/05/07 07:30:43;;;;;;;13.50;2.70;;;;;;;18.74;41.17;93729.31;5117003;27;20487;-72
2021/05/07 07:33:09;;;;;;;10.60;2.78;;;;;;;18.84;39.81;93726.00;5113705;27;20023;-72
2021/05/07 07:35:34;;;;;;;10.23;2.70;;;;;;;18.98;39.50;93720.75;5126739;27;20030;-72
2021/05/07 07:38:00;;;;;;;10.25;2.90;;;;;;;19.10;39.41;93717.03;5131142;27;20034;-72
2021/05/07 07:40:25;;;;;;;9.48;2.58;;;;;;;19.22;39.48;93716.00;5131687;27;20015;-72
2021/05/07 07:42:50;;;;;;;4.75;1.88;;;;;;;19.36;38.97;93705.31;5132623;27;20030;-72
2021/05/07 07:45:16;;;;;;;15.88;2.60;;;;;;;19.43;38.17;93696.50;5131289;27;20019;-72
2021/05/07 07:47:41;;;;;;;9.30;2.08;;;;;;;19.51;38.87;93697.34;5121566;27;20487;-73
2021/05/07 07:50:08;;;;;;;9.27;2.00;;;;;;;19.59;38.69;93696.25;5124678;27;20066;-72
2021/05/07 07:52:35;;;;;;;5.80;2.13;;;;;;;19.66;38.60;93680.06;5117168;27;20034;-72
2021/05/07 07:55:03;;;;;;;9.85;2.35;;;;;;;19.67;38.13;93687.03;5117574;27;20027;-72
2021/05/07 07:57:28;;;;;;;10.38;2.17;;;;;;;19.64;37.54;93685.88;5117689;27;20015;-72
2021/05/07 07:59:54;;;;;;;8.75;2.25;;;;;;;19.78;37.54;93687.94;5111931;28;20631;-73
2021/05/07 08:02:20;;;;;;;15.38;3.30;;;;;;;19.80;37.18;93677.53;5111696;28;20030;-71
2021/05/07 08:04:45;;;;;;;12.70;2.78;;;;;;;19.82;37.66;93680.63;5129283;27;20441;-71
2021/05/07 08:07:14;;;;;;;9.55;2.47;;;;;;;19.82;37.58;93671.72;5127154;27;20051;-71
2021/05/07 08:09:40;;;;;;;14.70;2.58;;;;;;;19.96;37.89;93676.44;5126834;27;20027;-71
2021/05/07 08:12:08;;;;;;;9.20;1.88;;;;;;;20.10;38.74;93678.47;5128637;27;20033;-72
2021/05/07 08:14:33;;;;;;;7.90;2.05;;;;;;;20.17;37.97;93664.97;5130317;27;20414;-71
2021/05/07 08:16:59;;;;;;;7.07;2.42;;;;;;;20.29;37.28;93669.28;5120293;27;20023;-71
2021/05/07 08:19:25;;;;;;;6.60;2.50;;;;;;;20.41;37.03;93674.38;5127127;27;20035;-71
2021/05/07 08:21:51;;;;;;;5.35;2.45;;;;;;;20.46;36.44;93671.31;5126256;27;20031;-71
2021/05/07 08:24:16;;;;;;;9.07;2.13;;;;;;;20.59;36.25;93675.25;5119304;27;20024;-71
2021/05/07 08:26:42;;;;;;;13.00;2.50;;;;;;;20.62;36.19;93669.09;5128094;27;20030;-71
2021/05/07 08:29:07;;;;;;;20.58;2.80;;;;;;;20.78;35.08;93659.84;5130415;27;20031;-71
2021/05/07 08:31:33;;;;;;;10.70;2.47;;;;;;;20.90;35.31;93656.00;5122183;27;20079;-72
2021/05/07 08:33:58;;;;;;;20.08;3.28;;;;;;;21.00;34.59;93647.94;5130203;27;20399;-71
2021/05/07 08:36:25;;;;;;;12.52;2.60;;;;;;;21.07;34.19;93654.53;5120607;27;20040;-71
2021/05/07 08:38:50;;;;;;;7.50;2.22;;;;;;;21.12;34.33;93654.13;5128846;27;20058;-71
2021/05/07 08:41:16;;;;;;;7.47;2.22;;;;;;;21.15;34.78;93661.50;5127649;27;20450;-72
2021/05/07 08:43:45;;;;;;;14.88;3.40;;;;;;;21.18;34.06;93652.59;5122406;28;20082;-71
2021/05/07 08:46:10;;;;;;;7.90;2.70;;;;;;;21.17;34.20;93651.81;5122847;28;20028;-71
2021/05/07 08:48:38;;;;;;;9.63;2.35;;;;;;;21.06;33.99;93663.78;5130352;28;20065;-71
2021/05/07 08:51:04;;;;;;;7.22;2.72;;;;;;;21.06;34.55;93664.56;5117240;27;20023;-71
2021/05/07 08:53:30;;;;;;;11.07;3.13;;;;;;;21.09;35.43;93669.22;5127419;28;20075;-71
2021/05/07 08:55:55;;;;;;;7.18;2.75;;;;;;;21.13;34.37;93645.63;5116655;28;20471;-71
2021/05/07 08:58:21;;;;;;;14.43;3.47;;;;;;;21.08;34.92;93640.56;5126443;28;20028;-71
2021/05/07 09:00:47;;;;;;;11.27;2.92;;;;;;;21.17;35.61;93635.56;5121246;28;20488;-72
2021/05/07 09:03:14;;;;;;;16.30;3.40;;;;;;;21.32;34.96;93622.00;5129672;28;20034;-71
2021/05/07 09:05:40;;;;;;;7.65;2.97;;;;;;;21.52;34.83;93625.16;5121686;28;20030;-71
2021/05/07 09:08:07;;;;;;;10.52;2.78;;;;;;;21.74;33.66;93631.34;5126420;27;20027;-71
2021/05/07 09:10:38;;;;;;;11.63;2.50;;;;;;;21.80;33.42;93630.53;5116917;27;20106;-71
2021/05/07 09:13:05;;;;;;;6.88;2.42;;;;;;;22.02;33.32;93625.06;5127236;27;20050;-71
2021/05/07 09:15:45;;;;;;;12.82;3.30;;;;;;;22.19;32.62;93629.69;5118922;27;20035;-71
2021/05/07 09:18:16;;;;;;;9.95;2.28;;;;;;;22.36;30.72;93627.31;5120599;27;20085;-71
2021/05/07 09:20:43;;;;;;;12.25;2.67;;;;;;;22.53;32.08;93623.78;5116311;27;20077;-71
2021/05/07 09:23:13;;;;;;;6.25;2.40;;;;;;;22.79;32.79;93627.13;5128740;28;20069;-71
2021/05/07 09:25:43;;;;;;;9.15;2.80;;;;;;;22.86;32.09;93610.81;5120896;27;20027;-71
2021/05/07 09:28:16;;;;;;;4.50;2.17;;;;;;;23.06;31.53;93623.91;5125828;27;20110;-71
2021/05/07 09:30:44;;;;;;;13.45;2.25;;;;;;;23.07;30.88;93614.59;5117657;27;20031;-71
2021/05/07 09:33:14;;;;;;;9.02;2.25;;;;;;;23.25;30.77;93606.31;5123031;27;20110;-72
2021/05/07 09:35:41;;;;;;;23.58;2.40;;;;;;;23.38;29.26;93596.47;5115685;27;20110;-71
2021/05/07 09:38:12;;;;;;;8.27;2.78;;;;;;;23.43;29.69;93596.84;5122361;27;20048;-72
2021/05/07 09:40:39;;;;;;;8.57;2.03;;;;;;;23.52;29.60;93590.16;5125995;27;20106;-71
2021/05/07 09:43:18;;;;;;;7.32;2.35;;;;;;;23.66;29.41;93587.31;5124267;27;20077;-71
2021/05/07 09:45:47;;;;;;;5.88;2.20;;;;;;;23.71;27.41;93589.59;5131279;27;20521;-71
2021/05/07 09:48:20;;;;;;;11.48;2.40;;;;;;;23.82;26.94;93571.25;5124042;27;20023;-71
2021/05/07 09:50:47;;;;;;;13.35;2.65;;;;;;;23.96;27.26;93564.88;5127787;27;20028;-71
2021/05/07 09:53:19;;;;;;;5.95;1.70;;;;;;;24.10;27.31;93555.00;5131881;27;20051;-72
2021/05/07 09:55:46;;;;;;;5.00;2.08;;;;;;;24.33;27.09;93548.91;5120917;27;20037;-71
2021/05/07 09:58:12;;;;;;;7.30;1.23;;;;;;;24.42;25.83;93560.06;5116189;27;20465;-71
2021/05/07 10:00:38;;;;;;;4.93;1.40;;;;;;;24.42;26.99;93566.31;5123303;27;20114;-72
2021/05/07 10:03:05;;;;;;;9.48;2.00;;;;;;;24.42;27.06;93560.84;5120491;27;20398;-71
2021/05/07 10:05:30;;;;;;;4.28;1.92;;;;;;;24.30;27.48;93553.22;5129049;27;20015;-72
2021/05/07 10:07:58;;;;;;;8.77;1.92;;;;;;;24.11;25.28;93553.84;5116182;27;20069;-71
2021/05/07 10:10:32;;;;;;;5.72;1.48;;;;;;;23.72;24.10;93544.13;5122038;27;20019;-72
2021/05/07 10:13:02;;;;;;;5.65;1.85;;;;;;;23.72;24.57;93550.31;5128674;27;20019;-71
2021/05/07 10:15:35;;;;;;;8.15;1.90;;;;;;;23.85;25.97;93563.44;5125983;27;20042;-71
2021/05/07 10:18:01;;;;;;;4.28;1.17;;;;;;;24.00;24.24;93564.84;5128427;27;20114;-72
2021/05/07 10:20:44;;;;;;;2.90;1.20;;;;;;;24.14;23.70;93561.97;5125037;27;20027;-71
2021/05/07 10:23:20;;;;;;;7.97;1.48;;;;;;;23.98;22.35;93562.53;5131422;27;20094;-71
2021/05/07 10:25:58;;;;;;;4.45;1.42;;;;;;;23.80;22.38;93551.81;5121434;27;20031;-72
2021/05/07 10:28:25;;;;;;;5.38;1.15;;;;;;;23.77;23.01;93551.84;5131626;27;20058;-71
2021/05/07 10:31:04;;;;;;;7.80;1.30;;;;;;;23.64;23.04;93538.75;5132062;27;20111;-71
2021/05/07 10:33:30;;;;;;;7.40;1.40;;;;;;;23.61;23.94;93530.59;5120471;27;20030;-71
2021/05/07 10:35:55;;;;;;;11.02;2.67;;;;;;;23.52;24.24;93536.53;5131517;27;20075;-71
2021/05/07 10:38:23;;;;;;;4.15;1.70;;;;;;;23.42;23.44;93542.84;5122830;27;20103;-71
2021/05/07 10:41:12;;;;;;;6.07;0.98;;;;;;;23.27;22.76;93530.56;5129350;27;20076;-71
2021/05/07 10:43:45;;;;;;;4.68;1.08;;;;;;;23.43;24.46;93530.81;5120888;27;20039;-71
2021/05/07 10:46:21;;;;;;;2.83;1.08;;;;;;;23.62;22.48;93535.66;5120523;27;20190;-72
2021/05/07 10:48:53;;;;;;;3.03;1.05;;;;;;;23.45;23.22;93536.59;5128221;27;20078;-71
2021/05/07 10:51:19;;;;;;;4.85;1.48;;;;;;;23.35;23.08;93521.94;5128246;27;20035;-70
2021/05/07 10:53:45;;;;;;;5.60;1.20;;;;;;;23.16;24.21;93546.94;5116753;27;20103;-71
2021/05/07 10:56:23;;;;;;;4.65;1.38;;;;;;;23.13;24.55;93526.78;5112254;28;20135;-71
2021/05/07 10:58:53;;;;;;;5.25;1.27;;;;;;;23.23;24.66;93515.03;5124355;27;20031;-71
2021/05/07 11:01:19;;;;;;;8.45;1.50;;;;;;;23.28;24.86;93511.09;5131589;27;20447;-71
2021/05/07 11:03:45;;;;;;;9.63;1.40;;;;;;;23.39;23.09;93514.50;5131426;27;20059;-71
2021/05/07 11:06:11;;;;;;;7.88;1.20;;;;;;;23.38;23.80;93496.63;5131329;27;20030;-73
2021/05/07 11:08:36;;;;;;;6.10;1.40;;;;;;;23.66;23.87;93502.22;5131043;27;20027;-73
2021/05/07 11:11:02;;;;;;;4.57;1.35;;;;;;;23.96;23.42;93493.34;5130968;27;20027;-73
2021/05/07 11:13:28;;;;;;;3.63;1.33;;;;;;;24.24;22.98;93500.38;5132223;27;20091;-73
2021/05/07 11:15:57;;;;;;;7.75;1.48;;;;;;;24.38;22.01;93496.69;5130300;27;20027;-74
2021/05/07 11:18:32;;;;;;;2.97;0.98;;;;;;;24.45;21.30;93491.16;5111577;28;20027;-73
2021/05/07 11:20:58;;;;;;;2.38;1.20;;;;;;;24.52;18.96;93482.13;5128031;27;20023;-73
2021/05/07 11:23:30;;;;;;;6.30;1.35;;;;;;;24.52;21.05;93488.34;5130735;27;20039;-73
2021/05/07 11:26:03;;;;;;;2.75;1.08;;;;;;;24.58;19.89;93478.53;5130274;27;20433;-74
2021/05/07 11:28:28;;;;;;;5.72;1.35;;;;;;;24.81;21.79;93460.69;5127894;27;20034;-73
2021/05/07 11:30:57;;;;;;;3.70;1.30;;;;;;;25.19;22.79;93466.66;5132160;27;20418;-73
2021/05/07 11:33:30;;;;;;;2.60;1.05;;;;;;;25.58;21.86;93459.00;5131849;27;20102;-73